sensor_id;sensor_type;location;lat;lon;timestamp;P1;durP1;ratioP1;P2;durP2;ratioP2
9384;SDS011;4732;49.340;10.886;2023-05-10T03:02:19;0.70;;;0.70;;
9384;SDS011;4732;49.340;10.886;2023-05-10T03:04:45;0.60;;;0.60;;
9384;SDS011;4732;49.340;10.886;2023-05-10T03:07:11;0.75;;;0.70;;
9384;SDS011;4732;49.340;10.886;2023-05-10T03:09:37;1.10;;;0.68;;
9384;SDS011;4732;49.340;10.886;2023-05-10T03:17:43;1.05;;;0.80;;
9384;SDS011;4732;49.340;10.886;2023-05-10T03:20:20;0.93;;;0.75;;
9384;SDS011;4732;49.340;10.886;2023-05-10T03:22:53;1.02;;;0.63;;
9384;SDS011;4732;49.340;10.886;2023-05-10T03:25:25;1.08;;;0.75;;
9384;SDS011;4732;49.340;10.886;2023-05-10T03:27:51;0.60;;;0.60;;
9384;SDS011;4732;49.340;10.886;2023-05-10T03:30:17;0.63;;;0.60;;
9384;SDS011;4732;49.340;10.886;2023-05-10T03:32:44;1.13;;;0.75;;
9384;SDS011;4732;49.340;10.886;2023-05-10T03:35:10;1.10;;;0.70;;
9384;SDS011;4732;49.340;10.886;2023-05-10T03:37:38;0.60;;;0.60;;
9384;SDS011;4732;49.340;10.886;2023-05-10T03:40:03;1.05;;;0.98;;
9384;SDS011;4732;49.340;10.886;2023-05-10T03:42:30;1.00;;;1.00;;
9384;SDS011;4732;49.340;10.886;2023-05-10T03:44:55;1.20;;;0.88;;
9384;SDS011;4732;49.340;10.886;2023-05-10T03:47:21;0.60;;;0.60;;
9384;SDS011;4732;49.340;10.886;2023-05-10T03:49:46;1.00;;;0.85;;
9384;SDS011;4732;49.340;10.886;2023-05-10T03:52:12;1.95;;;0.90;;
9384;SDS011;4732;49.340;10.886;2023-05-10T03:54:37;0.70;;;0.70;;
9384;SDS011;4732;49.340;10.886;2023-05-10T03:57:03;0.73;;;0.73;;
9384;SDS011;4732;49.340;10.886;2023-05-10T03:59:29;1.02;;;0.60;;
9384;SDS011;4732;49.340;10.886;2023-05-10T04:01:55;3.53;;;0.80;;
9384;SDS011;4732;49.340;10.886;2023-05-10T04:04:20;0.50;;;0.50;;
9384;SDS011;4732;49.340;10.886;2023-05-10T04:06:47;0.57;;;0.50;;
9384;SDS011;4732;49.340;10.886;2023-05-10T04:09:12;0.45;;;0.45;;
9384;SDS011;4732;49.340;10.886;2023-05-10T04:11:38;1.70;;;0.52;;
9384;SDS011;4732;49.340;10.886;2023-05-10T04:14:04;0.40;;;0.40;;
9384;SDS011;4732;49.340;10.886;2023-05-10T04:16:29;0.50;;;0.50;;
9384;SDS011;4732;49.340;10.886;2023-05-10T04:18:55;0.75;;;0.40;;
9384;SDS011;4732;49.340;10.886;2023-05-10T04:21:20;0.40;;;0.40;;
9384;SDS011;4732;49.340;10.886;2023-05-10T04:23:46;0.63;;;0.30;;
9384;SDS011;4732;49.340;10.886;2023-05-10T04:26:12;1.98;;;0.40;;
9384;SDS011;4732;49.340;10.886;2023-05-10T04:28:38;0.95;;;0.50;;
9384;SDS011;4732;49.340;10.886;2023-05-10T04:31:05;2.05;;;0.20;;
9384;SDS011;4732;49.340;10.886;2023-05-10T04:33:32;1.55;;;0.40;;
9384;SDS011;4732;49.340;10.886;2023-05-10T04:35:58;1.80;;;0.40;;
9384;SDS011;4732;49.340;10.886;2023-05-10T04:38:24;0.93;;;0.40;;
9384;SDS011;4732;49.340;10.886;2023-05-10T04:40:50;0.30;;;0.30;;
9384;SDS011;4732;49.340;10.886;2023-05-10T04:43:16;0.35;;;0.30;;
9384;SDS011;4732;49.340;10.886;2023-05-10T04:45:41;0.45;;;0.45;;
9384;SDS011;4732;49.340;10.886;2023-05-10T04:48:07;1.00;;;0.40;;
9384;SDS011;4732;49.340;10.886;2023-05-10T04:50:32;0.60;;;0.60;;
9384;SDS011;4732;49.340;10.886;2023-05-10T04:52:58;0.65;;;0.63;;
9384;SDS011;4732;49.340;10.886;2023-05-10T04:55:24;0.55;;;0.50;;
9384;SDS011;4732;49.340;10.886;2023-05-10T04:57:49;0.50;;;0.50;;
9384;SDS011;4732;49.340;10.886;2023-05-10T05:00:15;0.50;;;0.50;;
9384;SDS011;4732;49.340;10.886;2023-05-10T05:02:44;1.40;;;0.60;;
9384;SDS011;4732;49.340;10.886;2023-05-10T05:05:10;1.02;;;0.63;;
9384;SDS011;4732;49.340;10.886;2023-05-10T05:07:36;2.55;;;0.68;;
9384;SDS011;4732;49.340;10.886;2023-05-10T05:10:03;0.60;;;0.60;;
9384;SDS011;4732;49.340;10.886;2023-05-10T05:12:32;0.60;;;0.60;;
9384;SDS011;4732;49.340;10.886;2023-05-10T05:14:58;0.80;;;0.80;;
9384;SDS011;4732;49.340;10.886;2023-05-10T05:17:23;0.70;;;0.70;;
9384;SDS011;4732;49.340;10.886;2023-05-10T05:19:49;0.75;;;0.70;;
9384;SDS011;4732;49.340;10.886;2023-05-10T05:22:14;0.88;;;0.88;;
9384;SDS011;4732;49.340;10.886;2023-05-10T05:24:40;2.05;;;1.08;;
9384;SDS011;4732;49.340;10.886;2023-05-10T05:27:05;0.70;;;0.70;;
9384;SDS011;4732;49.340;10.886;2023-05-10T05:29:31;0.65;;;0.65;;
9384;SDS011;4732;49.340;10.886;2023-05-10T05:31:57;0.88;;;0.80;;
9384;SDS011;4732;49.340;10.886;2023-05-10T05:34:22;0.50;;;0.50;;
9384;SDS011;4732;49.340;10.886;2023-05-10T05:36:49;0.98;;;0.90;;
9384;SDS011;4732;49.340;10.886;2023-05-10T05:39:14;0.80;;;0.80;;
9384;SDS011;4732;49.340;10.886;2023-05-10T05:41:40;1.65;;;1.55;;
9384;SDS011;4732;49.340;10.886;2023-05-10T05:44:06;1.45;;;1.35;;
9384;SDS011;4732;49.340;10.886;2023-05-10T05:46:31;0.90;;;0.90;;
9384;SDS011;4732;49.340;10.886;2023-05-10T05:48:57;0.73;;;0.73;;
9384;SDS011;4732;49.340;10.886;2023-05-10T05:51:22;1.42;;;0.98;;
9384;SDS011;4732;49.340;10.886;2023-05-10T05:53:48;1.58;;;1.20;;
9384;SDS011;4732;49.340;10.886;2023-05-10T05:56:13;2.35;;;1.63;;
9384;SDS011;4732;49.340;10.886;2023-05-10T05:58:39;2.70;;;2.50;;
9384;SDS011;4732;49.340;10.886;2023-05-10T06:01:04;5.40;;;2.30;;
9384;SDS011;4732;49.340;10.886;2023-05-10T06:03:30;2.95;;;2.70;;
9384;SDS011;4732;49.340;10.886;2023-05-10T06:05:55;4.05;;;2.45;;
9384;SDS011;4732;49.340;10.886;2023-05-10T06:08:21;1.73;;;1.48;;
9384;SDS011;4732;49.340;10.886;2023-05-10T06:10:47;5.53;;;2.05;;
9384;SDS011;4732;49.340;10.886;2023-05-10T06:13:13;3.30;;;1.60;;
9384;SDS011;4732;49.340;10.886;2023-05-10T06:15:38;1.45;;;1.15;;
9384;SDS011;4732;49.340;10.886;2023-05-10T06:18:04;1.38;;;1.27;;
9384;SDS011;4732;49.340;10.886;2023-05-10T06:20:30;2.28;;;1.23;;
9384;SDS011;4732;49.340;10.886;2023-05-10T06:22:59;1.30;;;1.20;;
9384;SDS011;4732;49.340;10.886;2023-05-10T06:25:24;1.35;;;1.20;;
9384;SDS011;4732;49.340;10.886;2023-05-10T06:27:50;1.85;;;1.23;;
9384;SDS011;4732;49.340;10.886;2023-05-10T06:30:20;2.00;;;1.10;;
9384;SDS011;4732;49.340;10.886;2023-05-10T06:32:47;1.33;;;1.23;;
9384;SDS011;4732;49.340;10.886;2023-05-10T06:35:13;2.35;;;1.20;;
9384;SDS011;4732;49.340;10.886;2023-05-10T06:37:38;1.73;;;1.33;;
9384;SDS011;4732;49.340;10.886;2023-05-10T06:40:05;4.40;;;1.20;;
9384;SDS011;4732;49.340;10.886;2023-05-10T06:42:31;3.08;;;1.30;;
9384;SDS011;4732;49.340;10.886;2023-05-10T06:44:57;1.30;;;1.20;;
9384;SDS011;4732;49.340;10.886;2023-05-10T06:47:23;1.45;;;1.25;;
9384;SDS011;4732;49.340;10.886;2023-05-10T06:49:48;1.17;;;1.10;;
9384;SDS011;4732;49.340;10.886;2023-05-10T06:52:14;2.03;;;1.55;;
9384;SDS011;4732;49.340;10.886;2023-05-10T06:54:39;2.53;;;1.30;;
9384;SDS011;4732;49.340;10.886;2023-05-10T06:57:04;1.30;;;1.20;;
9384;SDS011;4732;49.340;10.886;2023-05-10T06:59:30;3.15;;;1.10;;
9384;SDS011;4732;49.340;10.886;2023-05-10T07:01:56;2.53;;;1.27;;
9384;SDS011;4732;49.340;10.886;2023-05-10T07:04:22;2.47;;;1.48;;
9384;SDS011;4732;49.340;10.886;2023-05-10T07:06:47;1.50;;;1.20;;
9384;SDS011;4732;49.340;10.886;2023-05-10T07:09:14;2.85;;;1.80;;
9384;SDS011;4732;49.340;10.886;2023-05-10T07:11:40;1.48;;;1.35;;
9384;SDS011;4732;49.340;10.886;2023-05-10T07:14:06;1.38;;;1.20;;
9384;SDS011;4732;49.340;10.886;2023-05-10T07:16:31;2.00;;;1.27;;
9384;SDS011;4732;49.340;10.886;2023-05-10T07:18:57;2.35;;;1.40;;
9384;SDS011;4732;49.340;10.886;2023-05-10T07:21:22;1.42;;;1.33;;
9384;SDS011;4732;49.340;10.886;2023-05-10T07:23:53;1.67;;;1.35;;
9384;SDS011;4732;49.340;10.886;2023-05-10T07:26:19;4.07;;;1.30;;
9384;SDS011;4732;49.340;10.886;2023-05-10T07:28:45;1.75;;;1.40;;
9384;SDS011;4732;49.340;10.886;2023-05-10T07:31:11;1.30;;;1.20;;
9384;SDS011;4732;49.340;10.886;2023-05-10T07:33:36;1.77;;;1.33;;
9384;SDS011;4732;49.340;10.886;2023-05-10T07:36:02;1.70;;;1.40;;
9384;SDS011;4732;49.340;10.886;2023-05-10T07:38:27;1.60;;;1.50;;
9384;SDS011;4732;49.340;10.886;2023-05-10T07:40:53;1.60;;;1.50;;
9384;SDS011;4732;49.340;10.886;2023-05-10T07:43:18;1.38;;;1.27;;
9384;SDS011;4732;49.340;10.886;2023-05-10T07:45:44;2.63;;;1.52;;
9384;SDS011;4732;49.340;10.886;2023-05-10T07:48:09;3.60;;;1.35;;
9384;SDS011;4732;49.340;10.886;2023-05-10T07:50:35;1.40;;;1.30;;
9384;SDS011;4732;49.340;10.886;2023-05-10T07:53:00;1.80;;;1.70;;
9384;SDS011;4732;49.340;10.886;2023-05-10T07:55:26;2.13;;;1.70;;
9384;SDS011;4732;49.340;10.886;2023-05-10T07:57:51;1.60;;;1.50;;
9384;SDS011;4732;49.340;10.886;2023-05-10T08:00:18;1.77;;;1.67;;
9384;SDS011;4732;49.340;10.886;2023-05-10T08:02:44;1.85;;;1.75;;
9384;SDS011;4732;49.340;10.886;2023-05-10T08:05:10;2.67;;;1.80;;
9384;SDS011;4732;49.340;10.886;2023-05-10T08:07:36;2.60;;;1.90;;
9384;SDS011;4732;49.340;10.886;2023-05-10T08:10:02;1.50;;;1.40;;
9384;SDS011;4732;49.340;10.886;2023-05-10T08:12:28;1.63;;;1.52;;
9384;SDS011;4732;49.340;10.886;2023-05-10T08:14:53;1.73;;;1.63;;
9384;SDS011;4732;49.340;10.886;2023-05-10T08:17:19;2.25;;;1.60;;
9384;SDS011;4732;49.340;10.886;2023-05-10T08:19:44;1.80;;;1.70;;
9384;SDS011;4732;49.340;10.886;2023-05-10T08:22:10;3.20;;;1.48;;
9384;SDS011;4732;49.340;10.886;2023-05-10T08:24:35;2.17;;;1.60;;
9384;SDS011;4732;49.340;10.886;2023-05-10T08:27:03;1.65;;;1.55;;
9384;SDS011;4732;49.340;10.886;2023-05-10T08:29:32;1.98;;;1.67;;
9384;SDS011;4732;49.340;10.886;2023-05-10T08:31:58;1.85;;;1.75;;
9384;SDS011;4732;49.340;10.886;2023-05-10T08:34:23;3.05;;;2.10;;
9384;SDS011;4732;49.340;10.886;2023-05-10T08:36:49;3.83;;;2.10;;
9384;SDS011;4732;49.340;10.886;2023-05-10T08:39:15;2.50;;;2.30;;
9384;SDS011;4732;49.340;10.886;2023-05-10T08:41:41;2.30;;;2.10;;
9384;SDS011;4732;49.340;10.886;2023-05-10T08:44:09;2.30;;;2.00;;
9384;SDS011;4732;49.340;10.886;2023-05-10T08:46:35;2.75;;;2.10;;
9384;SDS011;4732;49.340;10.886;2023-05-10T08:49:04;2.90;;;1.50;;
9384;SDS011;4732;49.340;10.886;2023-05-10T08:51:35;3.13;;;1.55;;
9384;SDS011;4732;49.340;10.886;2023-05-10T08:54:03;3.05;;;1.40;;
9384;SDS011;4732;49.340;10.886;2023-05-10T08:56:29;5.18;;;1.70;;
9384;SDS011;4732;49.340;10.886;2023-05-10T08:58:55;2.28;;;1.42;;
9384;SDS011;4732;49.340;10.886;2023-05-10T09:01:21;2.22;;;1.60;;
9384;SDS011;4732;49.340;10.886;2023-05-10T09:03:47;4.80;;;1.58;;
9384;SDS011;4732;49.340;10.886;2023-05-10T09:06:14;2.08;;;1.65;;
9384;SDS011;4732;49.340;10.886;2023-05-10T09:08:41;1.95;;;1.30;;
9384;SDS011;4732;49.340;10.886;2023-05-10T09:11:08;1.92;;;1.40;;
9384;SDS011;4732;49.340;10.886;2023-05-10T09:13:35;2.97;;;1.38;;
9384;SDS011;4732;49.340;10.886;2023-05-10T09:16:00;2.67;;;1.40;;
9384;SDS011;4732;49.340;10.886;2023-05-10T09:18:27;1.33;;;1.00;;
9384;SDS011;4732;49.340;10.886;2023-05-10T09:20:52;2.28;;;1.20;;
9384;SDS011;4732;49.340;10.886;2023-05-10T09:23:19;2.40;;;1.30;;
9384;SDS011;4732;49.340;10.886;2023-05-10T09:25:44;1.88;;;1.10;;
9384;SDS011;4732;49.340;10.886;2023-05-10T09:28:10;1.80;;;0.93;;
9384;SDS011;4732;49.340;10.886;2023-05-10T09:30:36;1.42;;;1.00;;
9384;SDS011;4732;49.340;10.886;2023-05-10T09:33:02;1.92;;;1.08;;
9384;SDS011;4732;49.340;10.886;2023-05-10T09:35:28;1.95;;;1.08;;
9384;SDS011;4732;49.340;10.886;2023-05-10T09:37:56;4.07;;;1.25;;
9384;SDS011;4732;49.340;10.886;2023-05-10T09:40:24;3.53;;;1.33;;
9384;SDS011;4732;49.340;10.886;2023-05-10T09:43:02;1.70;;;1.33;;
9384;SDS011;4732;49.340;10.886;2023-05-10T09:45:29;1.50;;;1.40;;
9384;SDS011;4732;49.340;10.886;2023-05-10T09:47:57;2.90;;;1.35;;
9384;SDS011;4732;49.340;10.886;2023-05-10T09:50:23;1.50;;;1.40;;
9384;SDS011;4732;49.340;10.886;2023-05-10T09:52:52;2.55;;;1.40;;
9384;SDS011;4732;49.340;10.886;2023-05-10T09:55:24;1.55;;;1.05;;
9384;SDS011;4732;49.340;10.886;2023-05-10T09:58:00;2.20;;;1.13;;
9384;SDS011;4732;49.340;10.886;2023-05-10T10:00:26;5.80;;;1.50;;
9384;SDS011;4732;49.340;10.886;2023-05-10T10:02:58;2.47;;;1.60;;
9384;SDS011;4732;49.340;10.886;2023-05-10T10:05:28;2.33;;;1.60;;
9384;SDS011;4732;49.340;10.886;2023-05-10T10:07:54;2.33;;;1.83;;
9384;SDS011;4732;49.340;10.886;2023-05-10T10:10:22;3.08;;;1.80;;
9384;SDS011;4732;49.340;10.886;2023-05-10T10:12:48;3.15;;;1.52;;
9384;SDS011;4732;49.340;10.886;2023-05-10T10:15:14;4.05;;;1.90;;
9384;SDS011;4732;49.340;10.886;2023-05-10T10:17:39;2.10;;;1.83;;
9384;SDS011;4732;49.340;10.886;2023-05-10T10:20:08;2.20;;;1.58;;
9384;SDS011;4732;49.340;10.886;2023-05-10T10:22:34;2.45;;;1.88;;
9384;SDS011;4732;49.340;10.886;2023-05-10T10:24:59;2.30;;;2.10;;
9384;SDS011;4732;49.340;10.886;2023-05-10T10:27:34;2.13;;;1.92;;
9384;SDS011;4732;49.340;10.886;2023-05-10T10:33:06;1.70;;;1.60;;
9384;SDS011;4732;49.340;10.886;2023-05-10T10:35:55;1.70;;;1.60;;
9384;SDS011;4732;49.340;10.886;2023-05-10T10:38:25;1.70;;;1.50;;
9384;SDS011;4732;49.340;10.886;2023-05-10T10:41:10;1.70;;;1.60;;
9384;SDS011;4732;49.340;10.886;2023-05-10T10:44:22;3.58;;;1.98;;
9384;SDS011;4732;49.340;10.886;2023-05-10T10:47:22;3.55;;;1.58;;
9384;SDS011;4732;49.340;10.886;2023-05-10T10:57:51;3.20;;;1.92;;
9384;SDS011;4732;49.340;10.886;2023-05-10T11:00:32;3.13;;;1.75;;
9384;SDS011;4732;49.340;10.886;2023-05-10T11:03:05;2.03;;;1.58;;
9384;SDS011;4732;49.340;10.886;2023-05-10T11:08:10;2.58;;;1.70;;
9384;SDS011;4732;49.340;10.886;2023-05-10T11:10:37;1.90;;;1.38;;
9384;SDS011;4732;49.340;10.886;2023-05-10T11:13:04;1.38;;;1.27;;
9384;SDS011;4732;49.340;10.886;2023-05-10T11:15:32;2.78;;;1.45;;
9384;SDS011;4732;49.340;10.886;2023-05-10T11:18:21;3.20;;;1.50;;
9384;SDS011;4732;49.340;10.886;2023-05-10T11:23:31;2.05;;;1.40;;
9384;SDS011;4732;49.340;10.886;2023-05-10T11:25:56;1.50;;;1.40;;
9384;SDS011;4732;49.340;10.886;2023-05-10T11:28:22;1.73;;;1.63;;
9384;SDS011;4732;49.340;10.886;2023-05-10T11:30:48;1.02;;;0.93;;
9384;SDS011;4732;49.340;10.886;2023-05-10T11:33:17;1.70;;;1.20;;
9384;SDS011;4732;49.340;10.886;2023-05-10T11:35:44;1.10;;;1.00;;
9384;SDS011;4732;49.340;10.886;2023-05-10T11:38:10;0.80;;;0.80;;
9384;SDS011;4732;49.340;10.886;2023-05-10T11:40:37;1.92;;;0.90;;
9384;SDS011;4732;49.340;10.886;2023-05-10T11:43:04;0.93;;;0.90;;
9384;SDS011;4732;49.340;10.886;2023-05-10T11:45:33;1.77;;;0.80;;
9384;SDS011;4732;49.340;10.886;2023-05-10T11:47:59;0.70;;;0.70;;
9384;SDS011;4732;49.340;10.886;2023-05-10T11:50:25;1.48;;;0.90;;
9384;SDS011;4732;49.340;10.886;2023-05-10T11:52:51;2.67;;;0.98;;
9384;SDS011;4732;49.340;10.886;2023-05-10T11:55:17;2.33;;;0.85;;
9384;SDS011;4732;49.340;10.886;2023-05-10T11:57:43;0.93;;;0.93;;
9384;SDS011;4732;49.340;10.886;2023-05-10T12:00:11;0.80;;;0.80;;
9384;SDS011;4732;49.340;10.886;2023-05-10T12:02:39;0.82;;;0.82;;
9384;SDS011;4732;49.340;10.886;2023-05-10T12:05:05;0.90;;;0.90;;
9384;SDS011;4732;49.340;10.886;2023-05-10T12:07:32;1.75;;;0.77;;
9384;SDS011;4732;49.340;10.886;2023-05-10T12:10:04;1.02;;;0.70;;
9384;SDS011;4732;49.340;10.886;2023-05-10T12:12:45;1.30;;;0.77;;
9384;SDS011;4732;49.340;10.886;2023-05-10T12:15:18;0.90;;;0.90;;
9384;SDS011;4732;49.340;10.886;2023-05-10T12:17:48;0.93;;;0.70;;
9384;SDS011;4732;49.340;10.886;2023-05-10T12:22:41;1.67;;;1.05;;
9384;SDS011;4732;49.340;10.886;2023-05-10T12:25:10;2.35;;;0.88;;
9384;SDS011;4732;49.340;10.886;2023-05-10T12:27:36;1.80;;;0.90;;
9384;SDS011;4732;49.340;10.886;2023-05-10T12:30:02;1.35;;;0.80;;
9384;SDS011;4732;49.340;10.886;2023-05-10T12:32:40;0.82;;;0.82;;
9384;SDS011;4732;49.340;10.886;2023-05-10T12:35:07;1.17;;;1.08;;
9384;SDS011;4732;49.340;10.886;2023-05-10T12:37:33;1.45;;;1.10;;
9384;SDS011;4732;49.340;10.886;2023-05-10T12:40:07;1.50;;;1.40;;
9384;SDS011;4732;49.340;10.886;2023-05-10T12:42:34;2.85;;;1.35;;
9384;SDS011;4732;49.340;10.886;2023-05-10T12:45:03;2.20;;;1.20;;
9384;SDS011;4732;49.340;10.886;2023-05-10T12:47:30;1.50;;;1.40;;
9384;SDS011;4732;49.340;10.886;2023-05-10T12:49:56;1.63;;;1.52;;
9384;SDS011;4732;49.340;10.886;2023-05-10T12:52:22;2.42;;;1.70;;
9384;SDS011;4732;49.340;10.886;2023-05-10T12:54:48;1.95;;;1.80;;
9384;SDS011;4732;49.340;10.886;2023-05-10T12:57:14;1.80;;;1.70;;
9384;SDS011;4732;49.340;10.886;2023-05-10T12:59:39;2.25;;;1.80;;
9384;SDS011;4732;49.340;10.886;2023-05-10T13:02:05;3.72;;;1.58;;
9384;SDS011;4732;49.340;10.886;2023-05-10T13:04:31;2.60;;;1.65;;
9384;SDS011;4732;49.340;10.886;2023-05-10T13:06:56;3.58;;;1.60;;
9384;SDS011;4732;49.340;10.886;2023-05-10T13:09:24;1.40;;;1.10;;
9384;SDS011;4732;49.340;10.886;2023-05-10T13:11:50;2.00;;;0.98;;
9384;SDS011;4732;49.340;10.886;2023-05-10T13:14:16;2.45;;;1.00;;
9384;SDS011;4732;49.340;10.886;2023-05-10T13:16:41;2.58;;;1.10;;
9384;SDS011;4732;49.340;10.886;2023-05-10T13:19:07;1.88;;;1.15;;
9384;SDS011;4732;49.340;10.886;2023-05-10T13:21:32;1.35;;;1.10;;
9384;SDS011;4732;49.340;10.886;2023-05-10T13:23:58;1.10;;;1.10;;
9384;SDS011;4732;49.340;10.886;2023-05-10T13:26:23;2.35;;;1.20;;
9384;SDS011;4732;49.340;10.886;2023-05-10T13:28:50;1.25;;;1.15;;
9384;SDS011;4732;49.340;10.886;2023-05-10T13:31:16;2.15;;;0.90;;
9384;SDS011;4732;49.340;10.886;2023-05-10T13:33:41;2.80;;;0.82;;
9384;SDS011;4732;49.340;10.886;2023-05-10T13:36:07;2.45;;;0.73;;
9384;SDS011;4732;49.340;10.886;2023-05-10T13:38:33;0.80;;;0.70;;
9384;SDS011;4732;49.340;10.886;2023-05-10T13:40:58;1.55;;;0.70;;
9384;SDS011;4732;49.340;10.886;2023-05-10T13:43:24;0.90;;;0.50;;
9384;SDS011;4732;49.340;10.886;2023-05-10T13:45:49;0.80;;;0.80;;
9384;SDS011;4732;49.340;10.886;2023-05-10T13:48:15;1.08;;;0.68;;
9384;SDS011;4732;49.340;10.886;2023-05-10T13:50:41;2.60;;;0.82;;
9384;SDS011;4732;49.340;10.886;2023-05-10T13:53:06;2.63;;;0.70;;
9384;SDS011;4732;49.340;10.886;2023-05-10T13:55:32;1.00;;;0.90;;
9384;SDS011;4732;49.340;10.886;2023-05-10T13:57:57;1.17;;;0.82;;
9384;SDS011;4732;49.340;10.886;2023-05-10T14:00:23;2.45;;;0.90;;
9384;SDS011;4732;49.340;10.886;2023-05-10T14:02:48;1.98;;;0.93;;
9384;SDS011;4732;49.340;10.886;2023-05-10T14:05:14;2.30;;;0.90;;
9384;SDS011;4732;49.340;10.886;2023-05-10T14:07:39;0.93;;;0.90;;
9384;SDS011;4732;49.340;10.886;2023-05-10T14:10:05;1.13;;;0.80;;
9384;SDS011;4732;49.340;10.886;2023-05-10T14:12:31;1.98;;;0.80;;
9384;SDS011;4732;49.340;10.886;2023-05-10T14:14:56;1.38;;;1.02;;
9384;SDS011;4732;49.340;10.886;2023-05-10T14:17:23;0.98;;;0.90;;
9384;SDS011;4732;49.340;10.886;2023-05-10T14:19:48;2.40;;;1.23;;
9384;SDS011;4732;49.340;10.886;2023-05-10T14:22:14;1.08;;;0.85;;
9384;SDS011;4732;49.340;10.886;2023-05-10T14:24:39;1.13;;;0.90;;
9384;SDS011;4732;49.340;10.886;2023-05-10T14:27:05;1.05;;;0.95;;
9384;SDS011;4732;49.340;10.886;2023-05-10T14:29:33;1.13;;;0.93;;
9384;SDS011;4732;49.340;10.886;2023-05-10T14:31:59;1.45;;;1.10;;
9384;SDS011;4732;49.340;10.886;2023-05-10T14:34:24;1.10;;;1.00;;
9384;SDS011;4732;49.340;10.886;2023-05-10T14:36:50;2.80;;;1.10;;
9384;SDS011;4732;49.340;10.886;2023-05-10T14:39:15;2.75;;;1.10;;
9384;SDS011;4732;49.340;10.886;2023-05-10T14:41:41;4.13;;;1.17;;
9384;SDS011;4732;49.340;10.886;2023-05-10T14:44:07;3.60;;;1.30;;
9384;SDS011;4732;49.340;10.886;2023-05-10T14:46:33;2.97;;;1.00;;
9384;SDS011;4732;49.340;10.886;2023-05-10T14:48:59;2.33;;;1.00;;
9384;SDS011;4732;49.340;10.886;2023-05-10T14:51:24;3.88;;;1.20;;
9384;SDS011;4732;49.340;10.886;2023-05-10T14:53:50;1.10;;;1.00;;
9384;SDS011;4732;49.340;10.886;2023-05-10T14:56:15;2.05;;;0.93;;
9384;SDS011;4732;49.340;10.886;2023-05-10T14:58:41;1.23;;;0.80;;
9384;SDS011;4732;49.340;10.886;2023-05-10T15:01:06;1.27;;;0.88;;
9384;SDS011;4732;49.340;10.886;2023-05-10T15:03:32;1.85;;;0.95;;
9384;SDS011;4732;49.340;10.886;2023-05-10T15:05:57;1.23;;;1.13;;
9384;SDS011;4732;49.340;10.886;2023-05-10T15:08:23;2.45;;;1.10;;
9384;SDS011;4732;49.340;10.886;2023-05-10T15:10:52;1.10;;;1.00;;
9384;SDS011;4732;49.340;10.886;2023-05-10T15:13:20;1.48;;;1.20;;
9384;SDS011;4732;49.340;10.886;2023-05-10T15:15:45;2.63;;;1.10;;
9384;SDS011;4732;49.340;10.886;2023-05-10T15:18:11;1.25;;;1.15;;
9384;SDS011;4732;49.340;10.886;2023-05-10T15:20:36;3.42;;;1.35;;
9384;SDS011;4732;49.340;10.886;2023-05-10T15:23:02;1.83;;;1.45;;
9384;SDS011;4732;49.340;10.886;2023-05-10T15:25:28;2.83;;;1.65;;
9384;SDS011;4732;49.340;10.886;2023-05-10T15:27:53;1.38;;;1.25;;
9384;SDS011;4732;49.340;10.886;2023-05-10T15:30:19;1.52;;;1.30;;
9384;SDS011;4732;49.340;10.886;2023-05-10T15:32:45;1.75;;;1.30;;
9384;SDS011;4732;49.340;10.886;2023-05-10T15:35:11;2.22;;;1.10;;
9384;SDS011;4732;49.340;10.886;2023-05-10T15:37:37;1.08;;;0.95;;
9384;SDS011;4732;49.340;10.886;2023-05-10T15:40:02;1.05;;;1.02;;
9384;SDS011;4732;49.340;10.886;2023-05-10T15:42:31;1.40;;;0.90;;
9384;SDS011;4732;49.340;10.886;2023-05-10T15:44:57;2.15;;;0.80;;
9384;SDS011;4732;49.340;10.886;2023-05-10T15:47:23;3.63;;;0.90;;
9384;SDS011;4732;49.340;10.886;2023-05-10T15:49:48;0.70;;;0.70;;
9384;SDS011;4732;49.340;10.886;2023-05-10T15:52:14;0.70;;;0.70;;
9384;SDS011;4732;49.340;10.886;2023-05-10T15:54:40;1.88;;;0.70;;
9384;SDS011;4732;49.340;10.886;2023-05-10T15:57:06;1.55;;;0.57;;
9384;SDS011;4732;49.340;10.886;2023-05-10T15:59:32;0.73;;;0.63;;
9384;SDS011;4732;49.340;10.886;2023-05-10T16:01:57;4.88;;;0.70;;
9384;SDS011;4732;49.340;10.886;2023-05-10T16:04:23;0.50;;;0.50;;
9384;SDS011;4732;49.340;10.886;2023-05-10T16:06:49;2.33;;;0.70;;
9384;SDS011;4732;49.340;10.886;2023-05-10T16:09:14;1.15;;;0.68;;
9384;SDS011;4732;49.340;10.886;2023-05-10T16:11:41;2.35;;;0.60;;
9384;SDS011;4732;49.340;10.886;2023-05-10T16:14:07;0.80;;;0.70;;
9384;SDS011;4732;49.340;10.886;2023-05-10T16:16:33;0.75;;;0.75;;
9384;SDS011;4732;49.340;10.886;2023-05-10T16:18:58;0.90;;;0.70;;
9384;SDS011;4732;49.340;10.886;2023-05-10T16:21:25;5.95;;;0.90;;
9384;SDS011;4732;49.340;10.886;2023-05-10T16:23:52;0.60;;;0.60;;
9384;SDS011;4732;49.340;10.886;2023-05-10T16:26:18;1.05;;;0.73;;
9384;SDS011;4732;49.340;10.886;2023-05-10T16:28:43;1.42;;;0.80;;
9384;SDS011;4732;49.340;10.886;2023-05-10T16:31:09;2.20;;;0.80;;
9384;SDS011;4732;49.340;10.886;2023-05-10T16:33:34;1.20;;;0.70;;
9384;SDS011;4732;49.340;10.886;2023-05-10T16:36:01;1.15;;;0.80;;
9384;SDS011;4732;49.340;10.886;2023-05-10T16:38:26;1.60;;;0.68;;
9384;SDS011;4732;49.340;10.886;2023-05-10T16:40:52;0.88;;;0.60;;
9384;SDS011;4732;49.340;10.886;2023-05-10T16:43:17;1.73;;;0.80;;
9384;SDS011;4732;49.340;10.886;2023-05-10T16:45:43;2.35;;;1.05;;
9384;SDS011;4732;49.340;10.886;2023-05-10T16:48:08;1.30;;;1.00;;
9384;SDS011;4732;49.340;10.886;2023-05-10T16:50:34;0.80;;;0.80;;
9384;SDS011;4732;49.340;10.886;2023-05-10T16:53:00;2.45;;;0.90;;
9384;SDS011;4732;49.340;10.886;2023-05-10T16:55:25;0.95;;;0.80;;
9384;SDS011;4732;49.340;10.886;2023-05-10T16:57:51;1.48;;;1.10;;
9384;SDS011;4732;49.340;10.886;2023-05-10T17:00:16;2.25;;;0.90;;
9384;SDS011;4732;49.340;10.886;2023-05-10T17:02:44;1.20;;;0.93;;
9384;SDS011;4732;49.340;10.886;2023-05-10T17:05:10;3.47;;;0.90;;
9384;SDS011;4732;49.340;10.886;2023-05-10T17:07:35;1.23;;;0.88;;
9384;SDS011;4732;49.340;10.886;2023-05-10T17:10:01;1.23;;;0.98;;
9384;SDS011;4732;49.340;10.886;2023-05-10T17:12:26;1.85;;;1.13;;
9384;SDS011;4732;49.340;10.886;2023-05-10T17:14:52;1.85;;;1.08;;
9384;SDS011;4732;49.340;10.886;2023-05-10T17:17:17;2.00;;;0.90;;
9384;SDS011;4732;49.340;10.886;2023-05-10T17:19:46;3.65;;;1.48;;
9384;SDS011;4732;49.340;10.886;2023-05-10T17:22:11;2.80;;;1.20;;
9384;SDS011;4732;49.340;10.886;2023-05-10T17:24:37;2.60;;;1.15;;
9384;SDS011;4732;49.340;10.886;2023-05-10T17:27:03;16.05;;;5.60;;
9384;SDS011;4732;49.340;10.886;2023-05-10T17:29:29;4.97;;;1.30;;
9384;SDS011;4732;49.340;10.886;2023-05-10T17:31:56;3.28;;;1.30;;
9384;SDS011;4732;49.340;10.886;2023-05-10T17:34:22;2.60;;;1.50;;
9384;SDS011;4732;49.340;10.886;2023-05-10T17:36:48;1.23;;;1.13;;
9384;SDS011;4732;49.340;10.886;2023-05-10T17:39:13;3.17;;;1.50;;
9384;SDS011;4732;49.340;10.886;2023-05-10T17:41:39;2.05;;;1.13;;
9384;SDS011;4732;49.340;10.886;2023-05-10T17:44:05;1.42;;;1.27;;
9384;SDS011;4732;49.340;10.886;2023-05-10T17:46:31;2.42;;;1.48;;
9384;SDS011;4732;49.340;10.886;2023-05-10T17:48:56;1.20;;;1.10;;
9384;SDS011;4732;49.340;10.886;2023-05-10T17:51:22;1.55;;;1.42;;
9384;SDS011;4732;49.340;10.886;2023-05-10T17:53:48;1.27;;;1.05;;
9384;SDS011;4732;49.340;10.886;2023-05-10T17:56:13;2.97;;;1.45;;
9384;SDS011;4732;49.340;10.886;2023-05-10T17:58:39;3.03;;;1.33;;
9384;SDS011;4732;49.340;10.886;2023-05-10T18:01:05;2.33;;;1.48;;
9384;SDS011;4732;49.340;10.886;2023-05-10T18:03:31;1.70;;;1.20;;
9384;SDS011;4732;49.340;10.886;2023-05-10T18:05:56;2.95;;;1.20;;
9384;SDS011;4732;49.340;10.886;2023-05-10T18:08:22;1.50;;;1.40;;
9384;SDS011;4732;49.340;10.886;2023-05-10T18:10:50;3.03;;;1.50;;
9384;SDS011;4732;49.340;10.886;2023-05-10T18:13:16;4.15;;;1.65;;
9384;SDS011;4732;49.340;10.886;2023-05-10T18:15:42;1.90;;;1.55;;
9384;SDS011;4732;49.340;10.886;2023-05-10T18:18:08;1.60;;;1.20;;
9384;SDS011;4732;49.340;10.886;2023-05-10T18:20:34;1.40;;;1.30;;
9384;SDS011;4732;49.340;10.886;2023-05-10T18:23:00;2.28;;;1.35;;